createdAt,value
2018-08-11T00:00:22.345Z,19.22
2018-08-11T00:01:22.331Z,19.26
2018-08-11T00:02:22.321Z,19.30
2018-08-11T00:03:22.335Z,19.26
2018-08-11T00:04:22.304Z,19.07
2018-08-11T00:05:22.283Z,19.15
2018-08-11T00:06:22.283Z,19.14
2018-08-11T00:07:22.319Z,19.14
2018-08-11T00:08:22.255Z,19.11
2018-08-11T00:09:22.278Z,18.99
2018-08-11T00:10:22.226Z,19.04
2018-08-11T00:11:22.253Z,19.07
2018-08-11T00:12:22.208Z,18.98
2018-08-11T00:13:22.192Z,18.89
2018-08-11T00:14:22.192Z,19.02
2018-08-11T00:15:22.173Z,19.04
2018-08-11T00:16:22.200Z,18.93
2018-08-11T00:17:22.151Z,18.92
2018-08-11T00:18:22.136Z,18.92
2018-08-11T00:19:22.141Z,18.90
2018-08-11T00:20:22.123Z,18.86
2018-08-11T00:21:22.138Z,18.81
2018-08-11T00:22:22.122Z,18.83
2018-08-11T00:23:22.109Z,18.75
2018-08-11T00:24:22.104Z,18.77
2018-08-11T00:25:22.071Z,18.68
2018-08-11T00:26:22.087Z,18.60
2018-08-11T00:27:22.072Z,18.60
2018-08-11T00:28:22.031Z,18.58
2018-08-11T00:29:22.025Z,18.43
2018-08-11T00:30:22.006Z,18.23
2018-08-11T00:31:22.037Z,18.25
2018-08-11T00:32:21.988Z,18.15
2018-08-11T00:33:21.983Z,18.10
2018-08-11T00:34:22.002Z,18.05
2018-08-11T00:35:21.953Z,18.07
2018-08-11T00:36:21.971Z,18.08
2018-08-11T00:37:21.953Z,18.05
2018-08-11T00:38:21.920Z,18.01
2018-08-11T00:39:21.927Z,18.01
2018-08-11T00:40:21.919Z,17.90
2018-08-11T00:41:21.888Z,17.97
2018-08-11T00:42:21.908Z,17.92
2018-08-11T00:43:21.867Z,17.92
2018-08-11T00:44:21.855Z,17.90
2018-08-11T00:45:21.847Z,17.86
2018-08-11T00:46:21.845Z,17.89
2018-08-11T00:47:21.849Z,17.87
2018-08-11T00:48:21.813Z,17.65
2018-08-11T00:49:21.866Z,17.60
2018-08-11T00:50:21.787Z,17.39
2018-08-11T00:51:21.788Z,17.12
2018-08-11T00:52:21.828Z,16.90
2018-08-11T00:53:21.753Z,16.66
2018-08-11T00:54:21.741Z,16.49
2018-08-11T00:55:21.784Z,16.26
2018-08-11T00:56:21.748Z,16.04
2018-08-11T00:57:21.754Z,15.82
2018-08-11T00:58:21.698Z,15.65
2018-08-11T00:59:21.720Z,15.64
2018-08-11T01:00:21.701Z,15.44
2018-08-11T01:01:21.666Z,15.33
2018-08-11T01:02:21.752Z,15.18
2018-08-11T01:03:21.772Z,15.06
2018-08-11T01:04:21.631Z,15.07
2018-08-11T01:05:21.621Z,14.94
2018-08-11T01:06:21.604Z,15.03
2018-08-11T01:07:21.641Z,14.89
2018-08-11T01:08:21.590Z,14.94
2018-08-11T01:09:21.578Z,15.00
2018-08-11T01:10:21.646Z,14.91
2018-08-11T01:11:21.560Z,14.86
2018-08-11T01:12:21.558Z,14.88
2018-08-11T01:13:21.589Z,14.78
2018-08-11T01:14:21.523Z,14.63
2018-08-11T01:15:21.548Z,14.54
2018-08-11T01:16:21.501Z,14.41
2018-08-11T01:17:21.489Z,14.29
2018-08-11T01:18:21.511Z,14.28
2018-08-11T01:19:21.468Z,14.33
2018-08-11T01:20:21.482Z,14.20
2018-08-11T01:21:21.451Z,14.22
2018-08-11T01:22:21.487Z,14.14
2018-08-11T01:23:21.457Z,14.04
2018-08-11T01:24:21.417Z,13.97
2018-08-11T01:25:21.431Z,13.92
2018-08-11T01:26:21.390Z,13.92
2018-08-11T01:27:21.413Z,13.93
2018-08-11T01:28:21.366Z,13.89
2018-08-11T01:29:21.356Z,13.95
2018-08-11T01:30:21.352Z,14.00
2018-08-11T01:31:21.368Z,13.92
2018-08-11T01:32:21.323Z,13.96
2018-08-11T01:33:21.327Z,13.92
2018-08-11T01:34:21.361Z,13.90
2018-08-11T01:35:21.301Z,13.90
2018-08-11T01:36:22.505Z,13.90
2018-08-11T01:37:21.288Z,14.11
2018-08-11T01:38:21.257Z,14.07
2018-08-11T01:39:21.273Z,14.07
2018-08-11T01:40:21.242Z,13.97
2018-08-11T01:41:21.228Z,13.89
2018-08-11T01:42:21.845Z,13.89
2018-08-11T01:43:21.211Z,13.90
2018-08-11T01:44:21.246Z,13.92
2018-08-11T01:45:21.180Z,14.00
2018-08-11T01:46:21.175Z,13.92
2018-08-11T01:47:21.161Z,14.04
2018-08-11T01:48:21.168Z,14.08
2018-08-11T01:49:21.165Z,14.10
2018-08-11T01:50:21.154Z,14.12
2018-08-11T01:51:21.110Z,14.23
2018-08-11T01:52:21.100Z,14.25
2018-08-11T01:53:21.123Z,14.25
2018-08-11T01:54:21.074Z,14.25
2018-08-11T01:55:21.067Z,14.23
2018-08-11T01:56:21.052Z,14.35
2018-08-11T01:57:21.042Z,14.33
2018-08-11T01:58:21.060Z,14.37
2018-08-11T01:59:21.036Z,14.40
2018-08-11T02:00:21.012Z,14.41
2018-08-11T02:01:20.997Z,14.41
2018-08-11T02:02:21.057Z,14.43
2018-08-11T02:03:20.985Z,14.44
2018-08-11T02:04:20.967Z,14.37
2018-08-11T02:05:20.995Z,14.48
2018-08-11T02:07:10.597Z,14.41
2018-08-11T02:08:10.583Z,14.44
2018-08-11T02:09:10.575Z,14.44
2018-08-11T02:10:10.564Z,14.43
2018-08-11T02:11:10.591Z,14.40
2018-08-11T02:12:10.536Z,14.43
2018-08-11T02:13:10.555Z,14.45
2018-08-11T02:14:10.526Z,14.36
2018-08-11T02:15:10.506Z,14.36
2018-08-11T02:16:10.494Z,14.37
2018-08-11T02:17:10.514Z,14.30
2018-08-11T02:18:10.512Z,14.30
2018-08-11T02:19:10.461Z,14.37
2018-08-11T02:20:10.446Z,14.43
2018-08-11T02:21:10.437Z,14.53
2018-08-11T02:22:10.505Z,14.47
2018-08-11T02:23:10.443Z,14.51
2018-08-11T02:24:10.402Z,14.45
2018-08-11T02:25:10.399Z,14.47
2018-08-11T02:26:10.412Z,14.41
2018-08-11T02:27:10.373Z,14.50
2018-08-11T02:28:10.398Z,14.48
2018-08-11T02:29:10.349Z,14.41
2018-08-11T02:30:10.337Z,14.36
2018-08-11T02:31:10.324Z,14.29
2018-08-11T02:32:10.324Z,14.32
2018-08-11T02:33:10.354Z,14.23
2018-08-11T02:34:10.324Z,14.14
2018-08-11T02:35:10.282Z,14.17
2018-08-11T02:36:11.260Z,14.32
2018-08-11T02:37:10.256Z,14.17
2018-08-11T02:38:11.259Z,14.17
2018-08-11T02:39:10.238Z,14.12
2018-08-11T02:40:10.227Z,14.14
2018-08-11T02:41:10.250Z,14.14
2018-08-11T02:42:10.206Z,14.12
2018-08-11T02:43:10.233Z,14.17
2018-08-11T02:44:10.184Z,14.15
2018-08-11T02:45:10.171Z,14.17
2018-08-11T02:46:10.152Z,14.18
2018-08-11T02:47:10.145Z,14.12
2018-08-11T02:48:10.157Z,14.17
2018-08-11T02:49:10.117Z,14.14
2018-08-11T02:50:10.115Z,14.17
2018-08-11T02:51:10.132Z,14.29
2018-08-11T02:52:10.085Z,14.15
2018-08-11T02:53:10.075Z,14.11
2018-08-11T02:54:10.065Z,14.18
2018-08-11T02:55:10.050Z,14.17
2018-08-11T02:56:10.080Z,14.14
2018-08-11T02:57:10.028Z,14.22
2018-08-11T02:58:10.049Z,14.20
2018-08-11T02:59:10.025Z,14.15
2018-08-11T03:00:10.058Z,14.11
2018-08-11T03:01:10.022Z,14.07
2018-08-11T03:02:09.973Z,14.00
2018-08-11T03:03:09.965Z,13.92
2018-08-11T03:04:09.963Z,13.96
2018-08-11T03:05:09.981Z,14.00
2018-08-11T03:06:09.967Z,13.97
2018-08-11T03:07:09.915Z,13.97
2018-08-11T03:08:09.917Z,13.89
2018-08-11T03:09:09.896Z,13.99
2018-08-11T03:10:09.887Z,13.93
2018-08-11T03:11:09.908Z,13.97
2018-08-11T03:12:09.865Z,13.93
2018-08-11T03:13:09.847Z,14.03
2018-08-11T03:14:09.957Z,14.04
2018-08-11T03:15:09.828Z,14.03
2018-08-11T03:16:09.875Z,14.10
2018-08-11T03:17:09.804Z,14.08
2018-08-11T03:18:09.789Z,14.18
2018-08-11T03:19:09.776Z,14.17
2018-08-11T03:20:09.777Z,14.18
2018-08-11T03:21:09.867Z,14.14
2018-08-11T03:22:09.747Z,14.17
2018-08-11T03:23:09.735Z,14.18
2018-08-11T03:24:09.730Z,14.15
2018-08-11T03:25:09.716Z,14.14
2018-08-11T03:26:09.731Z,14.29
2018-08-11T03:27:09.731Z,14.22
2018-08-11T03:28:09.678Z,14.17
2018-08-11T03:29:09.665Z,14.15
2018-08-11T03:30:09.702Z,14.14
2018-08-11T03:31:09.644Z,14.10
2018-08-11T03:32:09.660Z,14.22
2018-08-11T03:33:09.658Z,14.20
2018-08-11T03:34:09.605Z,14.17
2018-08-11T03:35:09.600Z,14.20
2018-08-11T03:36:09.589Z,14.18
2018-08-11T03:37:09.582Z,14.22
2018-08-11T03:38:09.591Z,14.22
2018-08-11T03:39:09.583Z,14.17
2018-08-11T03:40:09.547Z,14.32
2018-08-11T03:41:09.535Z,14.26
2018-08-11T03:42:09.525Z,14.23
2018-08-11T03:43:09.509Z,14.23
2018-08-11T03:44:09.524Z,14.26
2018-08-11T03:45:09.525Z,14.18
2018-08-11T03:46:09.547Z,14.17
2018-08-11T03:47:09.461Z,14.20
2018-08-11T03:48:09.448Z,14.23
2018-08-11T03:49:09.443Z,14.17
2018-08-11T03:50:09.475Z,14.14
2018-08-11T03:51:09.421Z,14.17
2018-08-11T03:52:09.408Z,14.17
2018-08-11T03:53:09.400Z,14.15
2018-08-11T03:54:09.386Z,14.14
2018-08-11T03:55:09.432Z,14.14
2018-08-11T03:56:09.363Z,14.15
2018-08-11T03:57:09.348Z,14.14
2018-08-11T03:58:09.343Z,14.14
2018-08-11T03:59:09.341Z,14.17
2018-08-11T04:00:09.356Z,14.15
2018-08-11T04:01:09.327Z,14.08
2018-08-11T04:02:09.298Z,14.07
2018-08-11T04:03:09.289Z,14.04
2018-08-11T04:04:09.275Z,14.00
2018-08-11T04:05:09.312Z,13.93
2018-08-11T04:06:09.251Z,13.99
2018-08-11T04:07:09.236Z,13.97
2018-08-11T04:08:09.228Z,14.00
2018-08-11T04:09:09.232Z,14.03
2018-08-11T04:10:09.243Z,14.08
2018-08-11T04:11:09.207Z,14.05
2018-08-11T04:12:09.178Z,14.08
2018-08-11T04:13:09.173Z,14.10
2018-08-11T04:14:09.163Z,14.11
2018-08-11T04:15:09.182Z,14.18
2018-08-11T04:16:09.148Z,14.10
2018-08-11T04:17:09.270Z,14.12
2018-08-11T04:18:09.113Z,14.14
2018-08-11T04:19:09.101Z,14.22
2018-08-11T04:20:09.098Z,14.10
2018-08-11T04:21:09.080Z,14.10
2018-08-11T04:22:09.098Z,14.17
2018-08-11T04:23:09.098Z,14.22
2018-08-11T04:24:09.046Z,14.17
2018-08-11T04:25:09.038Z,14.22
2018-08-11T04:26:09.073Z,14.12
2018-08-11T04:27:09.010Z,14.18
2018-08-11T04:28:09.066Z,14.10
2018-08-11T04:29:08.995Z,14.17
2018-08-11T04:30:08.983Z,14.14
2018-08-11T04:31:08.993Z,14.11
2018-08-11T04:32:08.997Z,14.15
2018-08-11T04:33:08.993Z,14.23
2018-08-11T04:34:08.948Z,14.20
2018-08-11T04:35:08.952Z,14.23
2018-08-11T04:36:08.910Z,14.26
2018-08-11T04:37:08.928Z,14.14
2018-08-11T04:38:08.900Z,14.17
2018-08-11T04:39:08.878Z,14.20
2018-08-11T04:40:08.889Z,14.29
2018-08-11T04:41:09.329Z,14.15
2018-08-11T04:42:08.880Z,14.25
2018-08-11T04:43:08.845Z,14.15
2018-08-11T04:44:08.878Z,14.08
2018-08-11T04:45:08.852Z,14.05
2018-08-11T04:46:08.801Z,14.08
2018-08-11T04:47:08.781Z,14.08
2018-08-11T04:48:08.772Z,14.10
2018-08-11T04:49:08.762Z,14.08
2018-08-11T04:50:08.802Z,14.18
2018-08-11T04:51:08.743Z,14.14
2018-08-11T04:52:08.731Z,14.17
2018-08-11T04:53:08.750Z,14.22
2018-08-11T04:54:08.707Z,14.29
2018-08-11T04:55:08.701Z,14.25
2018-08-11T04:56:08.686Z,14.22
2018-08-11T04:57:08.672Z,14.29
2018-08-11T04:58:08.714Z,14.29
2018-08-11T04:59:08.648Z,14.28
2018-08-11T05:00:08.725Z,14.35
2018-08-11T05:01:08.633Z,14.32
2018-08-11T05:02:08.615Z,14.35
2018-08-11T05:03:08.636Z,14.36
2018-08-11T05:04:08.598Z,14.37
2018-08-11T05:05:08.616Z,14.41
2018-08-11T05:06:08.579Z,14.48
2018-08-11T05:07:08.582Z,14.50
2018-08-11T05:08:08.555Z,14.36
2018-08-11T05:09:08.574Z,14.44
2018-08-11T05:10:08.523Z,14.40
2018-08-11T05:11:08.513Z,14.36
2018-08-11T05:12:08.527Z,14.40
2018-08-11T05:13:08.491Z,14.36
2018-08-11T05:14:08.484Z,14.37
2018-08-11T05:15:08.505Z,14.35
2018-08-11T05:16:08.456Z,14.32
2018-08-11T05:17:08.447Z,14.29
2018-08-11T05:18:08.434Z,14.36
2018-08-11T05:19:08.452Z,14.32
2018-08-11T05:20:08.411Z,14.40
2018-08-11T05:21:08.420Z,14.28
2018-08-11T05:22:08.427Z,14.36
2018-08-11T05:23:08.379Z,14.37
2018-08-11T05:24:08.385Z,14.32
2018-08-11T05:25:08.358Z,14.23
2018-08-11T05:26:08.355Z,14.25
2018-08-11T05:27:08.362Z,14.20
2018-08-11T05:28:08.332Z,14.25
2018-08-11T05:29:08.320Z,14.30
2018-08-11T05:30:08.331Z,14.30
2018-08-11T05:31:08.298Z,14.12
2018-08-11T05:32:08.303Z,14.29
2018-08-11T05:33:08.309Z,14.22
2018-08-11T05:34:08.292Z,14.25
2018-08-11T05:35:08.249Z,14.29
2018-08-11T05:36:08.272Z,14.20
2018-08-11T05:37:08.221Z,14.26
2018-08-11T05:38:08.209Z,14.11
2018-08-11T05:39:08.195Z,14.26
2018-08-11T05:40:08.192Z,14.22
2018-08-11T05:41:08.210Z,14.32
2018-08-11T05:42:08.166Z,14.30
2018-08-11T05:43:08.183Z,14.33
2018-08-11T05:44:08.178Z,14.37
2018-08-11T05:45:08.131Z,14.36
2018-08-11T05:46:08.116Z,14.33
2018-08-11T05:47:08.113Z,14.44
2018-08-11T05:48:08.096Z,14.33
2018-08-11T05:49:08.208Z,14.32
2018-08-11T05:50:08.112Z,14.32
2018-08-11T05:51:08.063Z,14.40
2018-08-11T05:52:08.054Z,14.29
2018-08-11T05:53:08.048Z,14.33
2018-08-11T05:54:08.061Z,14.33
2018-08-11T05:55:08.026Z,14.35
2018-08-11T05:56:08.006Z,14.35
2018-08-11T05:57:07.992Z,14.40
2018-08-11T05:58:13.370Z,14.40
2018-08-11T05:59:08.023Z,14.32
2018-08-11T06:00:07.962Z,14.32
2018-08-11T06:01:07.948Z,14.41
2018-08-11T06:02:07.935Z,14.47
2018-08-11T06:03:07.956Z,14.51
2018-08-11T06:04:08.013Z,14.51
2018-08-11T06:05:07.910Z,14.59
2018-08-11T06:06:07.896Z,14.60
2018-08-11T06:07:07.887Z,14.70
2018-08-11T06:08:07.904Z,14.66
2018-08-11T06:09:07.863Z,14.77
2018-08-11T06:10:07.944Z,14.73
2018-08-11T06:11:07.881Z,14.63
2018-08-11T06:12:07.906Z,14.73
2018-08-11T06:13:07.998Z,14.69
2018-08-11T06:14:07.891Z,14.88
2018-08-11T06:15:07.854Z,14.85
2018-08-11T06:16:07.829Z,14.82
2018-08-11T06:17:08.499Z,14.85
2018-08-11T06:18:07.906Z,14.86
2018-08-11T06:19:07.813Z,14.85
2018-08-11T06:20:07.799Z,14.89
2018-08-11T06:21:07.827Z,14.97
2018-08-11T06:22:07.813Z,14.78
2018-08-11T06:23:07.783Z,14.89
2018-08-11T06:24:07.903Z,14.94
2018-08-11T06:25:07.763Z,14.91
2018-08-11T06:26:07.748Z,14.91
2018-08-11T06:27:07.767Z,14.91
2018-08-11T06:28:07.733Z,14.91
2018-08-11T06:29:07.796Z,14.91
2018-08-11T06:30:07.624Z,14.96
2018-08-11T06:31:07.620Z,15.00
2018-08-11T06:32:07.701Z,14.89
2018-08-11T06:33:07.637Z,15.02
2018-08-11T06:34:07.615Z,15.03
2018-08-11T06:35:07.568Z,15.06
2018-08-11T06:36:07.559Z,15.04
2018-08-11T06:37:07.548Z,15.14
2018-08-11T06:38:07.557Z,15.06
2018-08-11T06:39:07.575Z,15.06
2018-08-11T06:40:07.549Z,15.02
2018-08-11T06:41:07.507Z,15.15
2018-08-11T06:42:07.494Z,15.21
2018-08-11T06:43:07.485Z,15.18
2018-08-11T06:44:07.472Z,15.28
2018-08-11T06:45:07.485Z,15.29
2018-08-11T06:46:07.446Z,15.35
2018-08-11T06:47:07.533Z,15.35
2018-08-11T06:48:07.426Z,15.36
2018-08-11T06:49:07.418Z,15.33
2018-08-11T06:50:07.445Z,15.33
2018-08-11T06:51:07.388Z,15.46
2018-08-11T06:52:07.396Z,15.39
2018-08-11T06:53:07.367Z,15.46
2018-08-11T06:54:07.413Z,15.37
2018-08-11T06:55:07.379Z,15.40
2018-08-11T06:56:07.370Z,15.42
2018-08-11T06:57:07.324Z,15.55
2018-08-11T06:58:07.313Z,15.51
2018-08-11T06:59:07.301Z,15.52
2018-08-11T07:00:07.292Z,15.55
2018-08-11T07:01:07.311Z,15.58
2018-08-11T07:02:07.272Z,15.61
2018-08-11T07:03:07.292Z,15.68
2018-08-11T07:04:07.298Z,15.68
2018-08-11T07:05:07.239Z,15.59
2018-08-11T07:06:07.253Z,15.65
2018-08-11T07:07:07.214Z,15.67
2018-08-11T07:08:07.201Z,15.70
2018-08-11T07:09:07.196Z,15.75
2018-08-11T07:10:07.186Z,15.80
2018-08-11T07:11:07.200Z,15.82
2018-08-11T07:12:07.162Z,15.90
2018-08-11T07:13:07.154Z,15.83
2018-08-11T07:14:07.138Z,15.91
2018-08-11T07:15:07.132Z,15.98
2018-08-11T07:16:07.110Z,15.90
2018-08-11T07:17:07.133Z,15.94
2018-08-11T07:18:07.089Z,15.91
2018-08-11T07:19:07.114Z,15.98
2018-08-11T07:20:07.066Z,15.94
2018-08-11T07:21:07.061Z,15.94
2018-08-11T07:22:07.067Z,15.91
2018-08-11T07:23:07.036Z,16.01
2018-08-11T07:24:07.022Z,15.94
2018-08-11T07:25:07.010Z,16.02
2018-08-11T07:26:06.994Z,15.95
2018-08-11T07:27:07.013Z,16.05
2018-08-11T07:28:06.976Z,16.08
2018-08-11T07:29:06.962Z,16.05
2018-08-11T07:30:06.993Z,16.12
2018-08-11T07:31:06.938Z,16.17
2018-08-11T07:32:06.959Z,16.17
2018-08-11T07:33:07.853Z,16.13
2018-08-11T07:34:06.909Z,16.32
2018-08-11T07:35:07.819Z,16.23
2018-08-11T07:36:06.977Z,16.29
2018-08-11T07:37:06.874Z,16.28
2018-08-11T07:38:06.891Z,16.29
2018-08-11T07:39:06.852Z,16.26
2018-08-11T07:40:07.829Z,16.32
2018-08-11T07:41:06.832Z,16.35
2018-08-11T07:42:06.821Z,16.32
2018-08-11T07:43:06.844Z,16.28
2018-08-11T07:44:06.799Z,16.31
2018-08-11T07:45:06.785Z,16.36
2018-08-11T07:46:06.777Z,16.35
2018-08-11T07:47:06.768Z,16.38
2018-08-11T07:48:06.796Z,16.42
2018-08-11T07:49:06.767Z,16.46
2018-08-11T07:50:06.734Z,16.46
2018-08-11T07:51:06.725Z,16.36
2018-08-11T07:52:06.708Z,16.41
2018-08-11T07:53:06.703Z,16.46
2018-08-11T07:54:06.733Z,16.39
2018-08-11T07:55:06.676Z,16.42
2018-08-11T07:56:06.746Z,16.51
2018-08-11T07:57:06.654Z,16.43
2018-08-11T07:58:06.646Z,16.46
2018-08-11T07:59:06.734Z,16.50
2018-08-11T08:00:06.639Z,16.53
2018-08-11T08:01:06.613Z,16.50
2018-08-11T08:02:06.628Z,16.54
2018-08-11T08:03:06.586Z,16.61
2018-08-11T08:04:06.578Z,16.61
2018-08-11T08:05:06.589Z,16.64
2018-08-11T08:06:06.557Z,16.61
2018-08-11T08:07:13.866Z,16.69
2018-08-11T08:08:06.642Z,16.72
2018-08-11T08:09:06.520Z,16.69
2018-08-11T08:10:06.551Z,16.79
2018-08-11T08:11:06.546Z,16.84
2018-08-11T08:12:06.496Z,16.91
2018-08-11T08:13:06.515Z,16.93
2018-08-11T08:14:06.507Z,17.06
2018-08-11T08:15:06.455Z,17.15
2018-08-11T08:16:06.472Z,17.15
2018-08-11T08:17:06.429Z,17.24
2018-08-11T08:18:06.419Z,17.26
2018-08-11T08:19:06.441Z,17.24
2018-08-11T08:20:06.398Z,17.26
2018-08-11T08:21:06.388Z,17.24
2018-08-11T08:22:06.384Z,17.31
2018-08-11T08:23:06.360Z,17.29
2018-08-11T08:24:06.390Z,17.20
2018-08-11T08:25:06.341Z,17.15
2018-08-11T08:26:06.360Z,17.20
2018-08-11T08:27:06.320Z,17.23
2018-08-11T08:28:06.335Z,17.30
2018-08-11T08:29:06.294Z,17.26
2018-08-11T08:30:06.282Z,17.31
2018-08-11T08:31:06.287Z,17.31
2018-08-11T08:32:06.261Z,17.30
2018-08-11T08:33:06.280Z,17.26
2018-08-11T08:34:06.250Z,17.30
2018-08-11T08:35:06.278Z,17.33
2018-08-11T08:36:06.243Z,17.33
2018-08-11T08:37:06.201Z,17.39
2018-08-11T08:38:06.193Z,17.30
2018-08-11T08:39:06.183Z,17.31
2018-08-11T08:40:06.229Z,17.30
2018-08-11T08:41:06.154Z,17.27
2018-08-11T08:42:06.145Z,17.36
2018-08-11T08:43:06.166Z,17.36
2018-08-11T08:44:06.170Z,17.41
2018-08-11T08:45:06.113Z,17.36
2018-08-11T08:46:06.097Z,17.42
2018-08-11T08:47:06.132Z,17.52
2018-08-11T08:48:06.121Z,17.54
2018-08-11T08:49:06.077Z,17.63
2018-08-11T08:50:06.055Z,17.70
2018-08-11T08:51:06.039Z,17.70
2018-08-11T08:52:06.066Z,17.78
2018-08-11T08:53:06.085Z,17.80
2018-08-11T08:54:06.013Z,17.78
2018-08-11T08:55:06.088Z,17.74
2018-08-11T08:56:05.988Z,17.82
2018-08-11T08:57:05.976Z,17.79
2018-08-11T08:58:06.005Z,17.78
2018-08-11T08:59:05.995Z,17.71
2018-08-11T09:00:05.974Z,17.76
2018-08-11T09:01:05.929Z,17.78
2018-08-11T09:02:05.928Z,17.80
2018-08-11T09:03:05.947Z,17.82
2018-08-11T09:04:05.935Z,17.89
2018-08-11T09:05:05.886Z,17.80
2018-08-11T09:06:05.881Z,17.90
2018-08-11T09:07:05.867Z,17.92
2018-08-11T09:08:05.856Z,18.00
2018-08-11T09:09:05.888Z,18.13
2018-08-11T09:10:05.831Z,18.08
2018-08-11T09:11:05.959Z,18.10
2018-08-11T09:12:05.939Z,18.23
2018-08-11T09:13:05.797Z,18.20
2018-08-11T09:14:05.818Z,18.26
2018-08-11T09:15:05.818Z,18.38
2018-08-11T09:16:05.766Z,18.49
2018-08-11T09:17:05.777Z,18.45
2018-08-11T09:18:05.748Z,18.52
2018-08-11T09:19:05.735Z,18.43
2018-08-11T09:20:05.717Z,18.43
2018-08-11T09:21:05.738Z,18.56
2018-08-11T09:22:05.703Z,18.44
2018-08-11T09:23:05.688Z,18.43
2018-08-11T09:24:05.699Z,18.34
2018-08-11T09:25:05.662Z,18.38
2018-08-11T09:26:05.673Z,18.26
2018-08-11T09:27:05.643Z,18.26
2018-08-11T09:28:05.639Z,18.22
2018-08-11T09:29:05.703Z,18.35
2018-08-11T09:30:05.608Z,18.37
2018-08-11T09:31:05.596Z,18.50
2018-08-11T09:32:05.584Z,18.45
2018-08-11T09:33:05.571Z,18.52
2018-08-11T09:34:05.592Z,18.43
2018-08-11T09:35:05.557Z,18.38
2018-08-11T09:36:05.541Z,18.35
2018-08-11T09:37:05.529Z,18.45
2018-08-11T09:38:05.524Z,18.40
2018-08-11T09:39:05.546Z,18.34
2018-08-11T09:40:05.493Z,18.31
2018-08-11T09:41:05.491Z,18.43
2018-08-11T09:42:05.469Z,18.34
2018-08-11T09:43:05.466Z,18.29
2018-08-11T09:44:05.483Z,18.37
2018-08-11T09:45:05.439Z,18.34
2018-08-11T09:46:05.469Z,18.43
2018-08-11T09:47:05.417Z,18.41
2018-08-11T09:48:05.406Z,18.47
2018-08-11T09:49:05.429Z,18.49
2018-08-11T09:50:05.384Z,18.49
2018-08-11T09:51:05.408Z,18.60
2018-08-11T09:52:05.363Z,18.65
2018-08-11T09:53:05.377Z,18.75
2018-08-11T09:54:05.332Z,18.89
2018-08-11T09:55:05.322Z,18.95
2018-08-11T09:56:05.317Z,19.04
2018-08-11T09:57:05.331Z,19.16
2018-08-11T09:58:05.292Z,19.08
2018-08-11T09:59:05.278Z,19.15
2018-08-11T10:00:05.302Z,19.14
2018-08-11T10:01:05.264Z,19.14
2018-08-11T10:02:05.244Z,19.12
2018-08-11T10:03:05.235Z,19.04
2018-08-11T10:04:05.261Z,19.02
2018-08-11T10:05:05.219Z,19.07
2018-08-11T10:06:05.200Z,18.92
2018-08-11T10:07:05.195Z,19.00
2018-08-11T10:08:05.217Z,18.88
2018-08-11T10:09:05.166Z,18.81
2018-08-11T10:10:05.164Z,18.77
2018-08-11T10:11:05.149Z,18.80
2018-08-11T10:12:05.133Z,18.77
2018-08-11T10:13:05.159Z,18.89
2018-08-11T10:14:05.143Z,18.84
2018-08-11T10:15:05.117Z,18.92
2018-08-11T10:16:05.091Z,18.99
2018-08-11T10:17:05.080Z,19.16
2018-08-11T10:18:05.065Z,19.22
2018-08-11T10:19:05.075Z,19.30
2018-08-11T10:20:05.044Z,19.40
2018-08-11T10:21:05.028Z,19.48
2018-08-11T10:22:05.024Z,19.48
2018-08-11T10:23:05.049Z,19.56
2018-08-11T10:24:05.002Z,19.67
2018-08-11T10:25:05.004Z,19.67
2018-08-11T10:26:05.007Z,19.73
2018-08-11T10:27:04.966Z,19.84
2018-08-11T10:28:04.965Z,19.88
2018-08-11T10:29:04.972Z,20.02
2018-08-11T10:30:04.958Z,20.09
2018-08-11T10:31:05.014Z,20.14
2018-08-11T10:32:04.912Z,20.24
2018-08-11T10:33:04.934Z,20.25
2018-08-11T10:34:04.889Z,20.32
2018-08-11T10:35:04.903Z,20.28
2018-08-11T10:36:04.867Z,20.16
2018-08-11T10:37:04.927Z,20.18
2018-08-11T10:38:04.854Z,20.04
2018-08-11T10:39:04.867Z,19.88
2018-08-11T10:40:04.867Z,19.84
2018-08-11T10:41:04.840Z,19.81
2018-08-11T10:42:04.801Z,19.74
2018-08-11T10:43:04.791Z,19.81
2018-08-11T10:44:04.781Z,19.82
2018-08-11T10:45:04.811Z,19.92
2018-08-11T10:46:04.763Z,20.04
2018-08-11T10:47:04.844Z,20.06
2018-08-11T10:48:04.737Z,20.09
2018-08-11T10:49:04.725Z,20.14
2018-08-11T10:50:04.749Z,20.14
2018-08-11T10:51:04.746Z,20.29
2018-08-11T10:52:04.693Z,20.22
2018-08-11T10:53:04.684Z,20.47
2018-08-11T10:54:04.666Z,20.56
2018-08-11T10:55:04.689Z,20.58
2018-08-11T10:56:04.672Z,20.65
2018-08-11T10:57:04.635Z,20.72
2018-08-11T10:58:04.639Z,20.82
2018-08-11T10:59:04.623Z,20.74
2018-08-11T11:00:04.632Z,20.81
2018-08-11T11:01:04.590Z,20.70
2018-08-11T11:02:04.622Z,20.69
2018-08-11T11:03:04.596Z,20.69
2018-08-11T11:04:04.559Z,20.75
2018-08-11T11:05:04.567Z,20.80
2018-08-11T11:06:04.532Z,20.85
2018-08-11T11:07:04.519Z,20.96
2018-08-11T11:08:04.538Z,20.96
2018-08-11T11:09:05.390Z,20.99
2018-08-11T11:10:04.532Z,20.97
2018-08-11T11:11:04.479Z,21.03
2018-08-11T11:12:04.467Z,21.05
2018-08-11T11:13:04.455Z,21.03
2018-08-11T11:14:04.449Z,21.12
2018-08-11T11:15:04.464Z,21.15
2018-08-11T11:16:04.425Z,21.18
2018-08-11T11:17:04.412Z,21.17
2018-08-11T11:18:04.405Z,21.07
2018-08-11T11:19:04.424Z,20.97
2018-08-11T11:20:04.412Z,21.03
2018-08-11T11:21:04.367Z,20.78
2018-08-11T11:22:04.412Z,20.69
2018-08-11T11:23:04.344Z,20.51
2018-08-11T11:24:04.333Z,20.51
2018-08-11T11:25:04.358Z,20.40
2018-08-11T11:26:04.311Z,20.51
2018-08-11T11:27:04.328Z,20.47
2018-08-11T11:28:04.288Z,20.31
2018-08-11T11:29:04.341Z,20.28
2018-08-11T11:30:04.354Z,20.29
2018-08-11T11:31:04.251Z,20.22
2018-08-11T11:32:04.242Z,20.18
2018-08-11T11:33:04.229Z,20.22
2018-08-11T11:34:04.248Z,20.21
2018-08-11T11:35:04.207Z,20.43
2018-08-11T11:36:04.229Z,20.41
2018-08-11T11:37:04.189Z,20.43
2018-08-11T11:38:04.179Z,20.51
2018-08-11T11:39:04.162Z,20.60
2018-08-11T11:40:04.195Z,20.50
2018-08-11T11:41:04.138Z,20.60
2018-08-11T11:42:04.132Z,20.67
2018-08-11T11:43:04.123Z,20.69
2018-08-11T11:44:04.106Z,20.78
2018-08-11T11:45:04.133Z,20.84
2018-08-11T11:46:04.120Z,20.90
2018-08-11T11:47:04.073Z,20.97
2018-08-11T11:48:04.060Z,21.00
2018-08-11T11:49:04.045Z,21.09
2018-08-11T11:50:04.066Z,21.27
2018-08-11T11:51:04.028Z,21.35
2018-08-11T11:52:04.012Z,21.45
2018-08-11T11:53:04.002Z,21.54
2018-08-11T11:54:03.990Z,21.62
2018-08-11T11:55:04.019Z,21.67
2018-08-11T11:56:03.970Z,21.77
2018-08-11T11:57:03.967Z,21.75
2018-08-11T11:58:03.947Z,21.70
2018-08-11T11:59:03.938Z,21.69
2018-08-11T12:00:04.080Z,21.75
2018-08-11T12:01:03.924Z,21.75
2018-08-11T12:02:04.005Z,21.76
2018-08-11T12:03:03.891Z,21.70
2018-08-11T12:04:03.915Z,21.73
2018-08-11T12:05:03.873Z,21.66
2018-08-11T12:06:03.887Z,21.62
2018-08-11T12:07:03.927Z,21.50
2018-08-11T12:08:03.849Z,21.43
2018-08-11T12:09:03.838Z,21.37
2018-08-11T12:10:03.817Z,21.37
2018-08-11T12:11:03.845Z,21.32
2018-08-11T12:12:03.836Z,21.30
2018-08-11T12:13:03.782Z,21.37
2018-08-11T12:14:03.772Z,21.32
2018-08-11T12:15:03.756Z,21.42
2018-08-11T12:16:03.778Z,21.43
2018-08-11T12:17:03.771Z,21.35
2018-08-11T12:18:03.727Z,21.35
2018-08-11T12:19:03.722Z,21.27
2018-08-11T12:20:03.709Z,21.30
2018-08-11T12:21:03.696Z,21.37
2018-08-11T12:22:03.723Z,21.46
2018-08-11T12:23:03.749Z,21.48
2018-08-11T12:24:03.664Z,21.39
2018-08-11T12:25:03.667Z,21.45
2018-08-11T12:26:03.650Z,21.54
2018-08-11T12:27:03.622Z,21.46
2018-08-11T12:28:03.627Z,21.51
2018-08-11T12:29:03.643Z,21.54
2018-08-11T12:30:03.593Z,21.55
2018-08-11T12:31:03.638Z,21.54
2018-08-11T12:32:03.571Z,21.62
2018-08-11T12:33:03.556Z,21.57
2018-08-11T12:34:03.548Z,21.67
2018-08-11T12:35:03.537Z,21.75
2018-08-11T12:36:03.557Z,21.69
2018-08-11T12:37:03.516Z,21.77
2018-08-11T12:38:03.682Z,21.67
2018-08-11T12:39:03.495Z,21.82
2018-08-11T12:40:03.483Z,22.18
2018-08-11T12:41:03.509Z,22.35
2018-08-11T12:42:03.465Z,22.62
2018-08-11T12:43:03.470Z,22.81
2018-08-11T12:44:03.477Z,22.94
2018-08-11T12:45:03.454Z,23.18
2018-08-11T12:46:03.506Z,23.12
2018-08-11T12:47:03.915Z,23.02
2018-08-11T12:48:03.402Z,23.32
2018-08-11T12:49:03.386Z,23.50
2018-08-11T12:50:03.422Z,23.66
2018-08-11T12:51:03.358Z,23.80
2018-08-11T12:52:03.355Z,24.08
2018-08-11T12:53:03.336Z,24.21